createdAt,value
2023-02-05T00:00:00.754Z,9.45
2023-02-05T00:02:27.147Z,9.13
2023-02-05T00:04:53.763Z,8.18
2023-02-05T00:07:20.128Z,9.00
2023-02-05T00:09:46.511Z,9.15
2023-02-05T00:12:12.895Z,8.32
2023-02-05T00:14:39.292Z,8.45
2023-02-05T00:17:08.132Z,8.75
2023-02-05T00:19:34.559Z,9.27
2023-02-05T00:22:00.951Z,8.80
2023-02-05T00:24:27.330Z,9.52
2023-02-05T00:26:53.811Z,10.13
2023-02-05T00:29:20.184Z,9.30
2023-02-05T00:31:49.587Z,7.10
2023-02-05T00:34:16.621Z,5.10
2023-02-05T00:36:43.065Z,5.03
2023-02-05T00:39:11.300Z,4.05
2023-02-05T00:41:38.430Z,3.83
2023-02-05T00:44:05.094Z,4.28
2023-02-05T00:46:31.522Z,3.85
2023-02-05T00:48:57.953Z,3.65
2023-02-05T00:51:24.427Z,4.10
2023-02-05T00:53:50.947Z,3.58
2023-02-05T00:56:17.333Z,3.80
2023-02-05T00:58:47.675Z,3.85
2023-02-05T01:01:14.815Z,3.50
2023-02-05T01:03:41.475Z,3.40
2023-02-05T01:06:08.283Z,3.08
2023-02-05T01:08:34.959Z,3.65
2023-02-05T01:11:01.399Z,3.50
2023-02-05T01:13:27.786Z,3.40
2023-02-05T01:15:54.239Z,3.35
2023-02-05T01:18:20.695Z,3.50
2023-02-05T01:20:47.198Z,3.83
2023-02-05T01:23:13.576Z,4.18
2023-02-05T01:25:40.125Z,3.72
2023-02-05T01:28:06.927Z,3.83
2023-02-05T01:30:33.916Z,4.20
2023-02-05T01:33:00.326Z,3.45
2023-02-05T01:35:26.765Z,3.55
2023-02-05T01:37:53.151Z,3.65
2023-02-05T01:40:19.690Z,3.95
2023-02-05T01:42:46.289Z,3.92
2023-02-05T01:45:21.623Z,3.50
2023-02-05T01:47:48.592Z,4.10
2023-02-05T01:50:16.449Z,4.25
2023-02-05T01:52:43.250Z,4.05
2023-02-05T01:55:09.693Z,3.83
2023-02-05T01:57:36.648Z,3.75
2023-02-05T02:00:05.029Z,3.80
2023-02-05T02:02:31.473Z,3.83
2023-02-05T02:05:04.089Z,4.00
2023-02-05T02:07:30.530Z,3.92
2023-02-05T02:09:56.946Z,4.15
2023-02-05T02:12:27.280Z,3.95
2023-02-05T02:14:55.778Z,4.07
2023-02-05T02:17:22.651Z,3.78
2023-02-05T02:19:55.250Z,3.50
2023-02-05T02:22:33.515Z,3.55
2023-02-05T02:25:04.650Z,3.70
2023-02-05T02:27:45.709Z,3.80
2023-02-05T02:30:20.547Z,3.80
2023-02-05T02:33:11.427Z,4.00
2023-02-05T02:35:51.440Z,3.80
2023-02-05T02:38:23.880Z,4.38
2023-02-05T02:43:30.304Z,4.88
2023-02-05T02:46:03.471Z,4.90
2023-02-05T02:48:30.962Z,4.88
2023-02-05T02:50:58.732Z,4.72
2023-02-05T02:53:28.708Z,5.25
2023-02-05T02:55:56.110Z,5.38
2023-02-05T02:58:25.944Z,5.55
2023-02-05T03:00:53.607Z,5.72
2023-02-05T03:03:21.920Z,6.82
2023-02-05T03:05:49.705Z,6.30
2023-02-05T03:08:45.394Z,7.82
2023-02-05T03:11:13.628Z,8.55
2023-02-05T03:13:40.838Z,8.70
2023-02-05T03:16:07.735Z,9.85
2023-02-05T03:18:34.217Z,9.52
2023-02-05T03:21:04.330Z,9.07
2023-02-05T03:23:31.011Z,9.55
2023-02-05T03:25:57.558Z,9.90
2023-02-05T03:28:24.176Z,9.50
2023-02-05T03:31:09.741Z,9.98
2023-02-05T03:33:52.350Z,10.32
2023-02-05T03:36:35.492Z,10.45
2023-02-05T03:39:20.017Z,10.10
2023-02-05T03:42:02.845Z,9.90
2023-02-05T03:44:47.927Z,9.38
2023-02-05T03:47:21.667Z,10.60
2023-02-05T03:50:09.928Z,10.88
2023-02-05T03:52:42.553Z,11.82
2023-02-05T03:55:21.197Z,13.00
2023-02-05T03:57:58.025Z,13.63
2023-02-05T04:00:25.390Z,11.63
2023-02-05T04:02:51.793Z,11.00
2023-02-05T04:05:20.950Z,9.93
2023-02-05T04:07:47.464Z,10.52
2023-02-05T04:10:13.899Z,10.90
2023-02-05T04:12:40.315Z,9.60
2023-02-05T04:15:08.976Z,10.57
2023-02-05T04:17:35.416Z,9.88
2023-02-05T04:20:01.864Z,10.00
2023-02-05T04:22:28.244Z,10.07
2023-02-05T04:24:54.640Z,9.00
2023-02-05T04:27:21.080Z,9.48
2023-02-05T04:29:47.549Z,9.38
2023-02-05T04:32:13.985Z,9.48
2023-02-05T04:34:40.388Z,9.73
2023-02-05T04:37:06.784Z,10.07
2023-02-05T04:39:33.442Z,9.85
2023-02-05T04:42:01.732Z,10.05
2023-02-05T04:44:28.200Z,9.50
2023-02-05T04:46:54.620Z,9.65
2023-02-05T04:49:21.133Z,9.93
2023-02-05T04:51:47.541Z,9.73
2023-02-05T04:54:14.085Z,10.13
2023-02-05T04:56:40.449Z,9.45
2023-02-05T04:59:06.882Z,9.90
2023-02-05T05:01:33.331Z,9.45
2023-02-05T05:03:59.738Z,8.50
2023-02-05T05:06:26.219Z,8.77
2023-02-05T05:08:54.244Z,7.35
2023-02-05T05:11:20.677Z,7.60
2023-02-05T05:13:49.192Z,7.03
2023-02-05T05:16:15.627Z,6.22
2023-02-05T05:18:42.198Z,6.70
2023-02-05T05:21:08.926Z,6.55
2023-02-05T05:23:36.564Z,5.82
2023-02-05T05:26:11.499Z,6.40
2023-02-05T05:28:38.195Z,8.60
2023-02-05T05:31:14.115Z,9.50
2023-02-05T05:33:40.549Z,8.65
2023-02-05T05:36:07.316Z,7.72
2023-02-05T05:38:33.750Z,10.25
2023-02-05T05:41:18.830Z,10.80
2023-02-05T05:43:48.175Z,9.93
2023-02-05T05:46:21.891Z,7.80
2023-02-05T05:48:53.507Z,6.90
2023-02-05T05:51:20.909Z,7.00
2023-02-05T05:53:47.993Z,7.07
2023-02-05T05:56:15.181Z,7.13
2023-02-05T05:58:42.005Z,7.93
2023-02-05T06:01:09.397Z,10.50
2023-02-05T06:03:36.082Z,11.23
2023-02-05T06:06:04.176Z,11.07
2023-02-05T06:08:30.958Z,12.32
2023-02-05T06:10:57.379Z,11.80
2023-02-05T06:13:23.870Z,11.88
2023-02-05T06:15:50.378Z,11.73
2023-02-05T06:18:17.526Z,11.05
2023-02-05T06:20:44.652Z,11.98
2023-02-05T06:23:12.016Z,11.35
2023-02-05T06:25:38.537Z,11.90
2023-02-05T06:28:05.315Z,10.45
2023-02-05T06:30:31.781Z,10.98
2023-02-05T06:32:58.160Z,11.40
2023-02-05T06:35:24.743Z,10.20
2023-02-05T06:37:51.144Z,10.55
2023-02-05T06:40:18.201Z,11.52
2023-02-05T06:42:45.433Z,11.40
2023-02-05T06:45:11.845Z,11.90
2023-02-05T06:47:38.543Z,11.35
2023-02-05T06:50:06.507Z,10.68
2023-02-05T06:52:33.060Z,10.43
2023-02-05T06:54:59.514Z,10.00
2023-02-05T06:57:26.024Z,10.20
2023-02-05T06:59:52.428Z,10.68
2023-02-05T07:02:18.873Z,10.20
2023-02-05T07:04:45.332Z,10.20
2023-02-05T07:07:11.717Z,9.63
2023-02-05T07:09:38.175Z,9.20
2023-02-05T07:12:04.869Z,10.68
2023-02-05T07:14:31.575Z,9.63
2023-02-05T07:16:58.146Z,10.20
2023-02-05T07:19:24.602Z,10.07
2023-02-05T07:21:51.002Z,9.70
2023-02-05T07:24:17.381Z,10.68
2023-02-05T07:26:45.282Z,10.93
2023-02-05T07:29:11.789Z,9.40
2023-02-05T07:31:38.288Z,9.93
2023-02-05T07:34:04.775Z,11.52
2023-02-05T07:36:31.213Z,13.07
2023-02-05T07:38:57.627Z,12.88
2023-02-05T07:41:24.106Z,14.50
2023-02-05T07:43:51.905Z,13.45
2023-02-05T07:46:19.089Z,13.23
2023-02-05T07:48:45.531Z,14.02
2023-02-05T07:51:20.154Z,14.20
2023-02-05T07:53:47.089Z,13.95
2023-02-05T07:56:14.432Z,13.55
2023-02-05T07:58:41.065Z,13.38
2023-02-05T08:01:07.641Z,16.75
2023-02-05T08:03:34.682Z,19.77
2023-02-05T08:06:08.833Z,14.88
2023-02-05T08:08:35.351Z,14.52
2023-02-05T08:11:04.749Z,14.85
2023-02-05T08:13:31.222Z,13.98
2023-02-05T08:15:57.751Z,14.43
2023-02-05T08:18:24.530Z,15.13
2023-02-05T08:20:54.761Z,14.18
2023-02-05T08:23:21.703Z,16.20
2023-02-05T08:25:48.226Z,17.10
2023-02-05T08:28:14.720Z,15.93
2023-02-05T08:30:41.333Z,15.25
2023-02-05T08:33:07.774Z,15.32
2023-02-05T08:35:34.442Z,15.57
2023-02-05T08:38:00.969Z,19.38
2023-02-05T08:40:27.384Z,22.95
2023-02-05T08:42:57.110Z,22.55
2023-02-05T08:45:24.534Z,20.90
2023-02-05T08:47:51.021Z,19.85
2023-02-05T08:50:17.973Z,16.67
2023-02-05T08:52:44.578Z,17.27
2023-02-05T08:55:11.263Z,15.43
2023-02-05T08:57:37.802Z,15.38
2023-02-05T09:00:05.429Z,15.82
2023-02-05T09:02:32.323Z,17.77
2023-02-05T09:05:08.042Z,19.13
2023-02-05T09:07:35.998Z,18.38
2023-02-05T09:10:02.447Z,17.27
2023-02-05T09:12:28.926Z,19.05
2023-02-05T09:14:55.365Z,17.80
2023-02-05T09:17:21.800Z,16.58
2023-02-05T09:19:48.229Z,15.00
2023-02-05T09:22:14.733Z,15.63
2023-02-05T09:24:41.170Z,15.80
2023-02-05T09:27:07.716Z,16.20
2023-02-05T09:29:34.148Z,15.93
2023-02-05T09:32:00.718Z,17.95
2023-02-05T09:34:27.141Z,17.48
2023-02-05T09:36:53.597Z,18.77
2023-02-05T09:39:52.299Z,18.77
2023-02-05T09:42:32.911Z,19.75
2023-02-05T09:47:37.722Z,19.88
2023-02-05T09:50:29.349Z,22.23
2023-02-05T09:53:05.980Z,22.35
2023-02-05T09:55:44.838Z,22.13
2023-02-05T09:58:15.227Z,21.05
2023-02-05T10:00:51.589Z,20.27
2023-02-05T10:03:36.231Z,19.95
2023-02-05T10:06:31.842Z,20.02
2023-02-05T10:09:19.109Z,18.27
2023-02-05T10:11:55.099Z,19.15
2023-02-05T10:14:41.035Z,19.00
2023-02-05T10:17:42.858Z,21.45
2023-02-05T10:20:18.915Z,21.08
2023-02-05T10:22:54.440Z,20.40
2023-02-05T10:25:45.274Z,20.00
2023-02-05T10:28:33.331Z,18.67
2023-02-05T10:31:24.019Z,19.83
2023-02-05T10:33:56.816Z,19.17
2023-02-05T10:36:25.744Z,19.70
2023-02-05T10:38:54.778Z,19.38
2023-02-05T10:41:36.674Z,21.20
2023-02-05T10:44:09.010Z,21.13
2023-02-05T10:46:37.371Z,21.08
2023-02-05T10:49:13.494Z,21.00
2023-02-05T10:51:42.262Z,21.90
2023-02-05T10:54:19.163Z,21.60
2023-02-05T10:56:45.659Z,22.52
2023-02-05T10:59:27.955Z,21.98
2023-02-05T11:01:56.068Z,21.80
2023-02-05T11:04:41.916Z,23.05
2023-02-05T11:07:13.444Z,22.58
2023-02-05T11:09:40.073Z,24.88
2023-02-05T11:12:17.978Z,23.88
2023-02-05T11:14:45.788Z,23.38
2023-02-05T11:17:38.688Z,25.38
2023-02-05T11:22:39.356Z,25.83
2023-02-05T11:25:05.631Z,26.52
2023-02-05T11:27:32.859Z,27.55
2023-02-05T11:33:26.780Z,27.10
2023-02-05T11:35:59.396Z,27.25
2023-02-05T11:38:31.618Z,25.25
2023-02-05T11:41:00.964Z,25.20
2023-02-05T11:43:40.610Z,25.92
2023-02-05T11:46:10.182Z,26.95
2023-02-05T11:48:51.750Z,26.45
2023-02-05T11:51:29.784Z,24.90
2023-02-05T11:53:58.623Z,26.05
2023-02-05T11:56:26.009Z,25.98
2023-02-05T11:59:02.765Z,25.70
2023-02-05T12:01:33.774Z,25.30
2023-02-05T12:04:04.302Z,24.75
2023-02-05T12:06:38.590Z,24.70
2023-02-05T12:09:05.472Z,25.13
2023-02-05T12:12:07.228Z,24.63
2023-02-05T12:14:43.429Z,24.42
2023-02-05T12:17:33.307Z,26.05
2023-02-05T12:20:19.313Z,25.83
2023-02-05T12:23:01.901Z,24.90
2023-02-05T12:25:51.080Z,25.42
2023-02-05T12:28:17.440Z,26.08
2023-02-05T12:30:57.873Z,26.63
2023-02-05T12:33:33.132Z,25.42
2023-02-05T12:36:10.567Z,26.52
2023-02-05T12:38:55.644Z,27.67
2023-02-05T12:41:44.019Z,26.65
2023-02-05T12:44:42.665Z,27.50
2023-02-05T12:47:30.403Z,29.13
2023-02-05T12:50:07.816Z,28.20
2023-02-05T12:53:00.368Z,29.48
2023-02-05T12:55:41.358Z,31.75
2023-02-05T12:58:10.807Z,32.80
2023-02-05T13:01:10.044Z,31.60
2023-02-05T13:03:45.394Z,29.58
2023-02-05T13:06:42.149Z,30.73
2023-02-05T13:09:16.845Z,32.40
2023-02-05T13:11:47.587Z,34.15
2023-02-05T13:14:17.785Z,33.67
2023-02-05T13:16:48.409Z,35.17
2023-02-05T13:19:26.059Z,34.45
2023-02-05T13:22:15.505Z,32.85
2023-02-05T13:25:05.663Z,33.42
2023-02-05T13:27:55.351Z,32.13
2023-02-05T13:30:28.676Z,30.70
2023-02-05T13:32:58.167Z,30.30
2023-02-05T13:35:26.856Z,28.40
2023-02-05T13:38:12.080Z,28.73
2023-02-05T13:40:55.313Z,26.50
2023-02-05T13:43:31.118Z,22.17
2023-02-05T13:46:06.358Z,19.73
2023-02-05T13:49:11.181Z,21.10
2023-02-05T13:51:43.119Z,21.80
2023-02-05T13:54:35.099Z,22.15
2023-02-05T13:57:21.277Z,16.33
2023-02-05T13:59:52.954Z,23.00
2023-02-05T14:02:33.553Z,23.63
2023-02-05T14:05:01.826Z,23.55
2023-02-05T14:07:31.526Z,25.52
2023-02-05T14:10:00.891Z,27.50
2023-02-05T14:12:29.302Z,27.23
2023-02-05T14:15:17.508Z,29.48
2023-02-05T14:17:43.803Z,28.70
2023-02-05T14:20:25.554Z,29.42
2023-02-05T14:22:53.611Z,28.50
2023-02-05T14:25:35.509Z,29.55
2023-02-05T14:28:03.018Z,29.55
2023-02-05T14:30:33.277Z,30.23
2023-02-05T14:33:05.672Z,29.10
2023-02-05T14:35:40.018Z,30.17
2023-02-05T14:38:21.501Z,32.00
2023-02-05T14:41:00.892Z,31.33
2023-02-05T14:43:32.421Z,33.38
2023-02-05T14:46:04.247Z,33.30
2023-02-05T14:48:33.568Z,33.88
2023-02-05T14:51:06.904Z,33.28
2023-02-05T14:53:34.524Z,32.67
2023-02-05T14:56:01.390Z,32.85
2023-02-05T14:58:32.298Z,32.13
2023-02-05T15:01:26.499Z,30.25
2023-02-05T15:03:53.283Z,31.90
2023-02-05T15:06:20.871Z,32.30
2023-02-05T15:08:51.859Z,31.35
2023-02-05T15:11:26.586Z,30.27
2023-02-05T15:14:35.376Z,30.23
2023-02-05T15:17:07.620Z,29.40
2023-02-05T15:19:46.882Z,32.38
2023-02-05T15:22:31.140Z,31.23
2023-02-05T15:24:58.106Z,29.30
2023-02-05T15:27:41.705Z,30.67
2023-02-05T15:30:09.662Z,30.38
2023-02-05T15:32:45.575Z,30.65
2023-02-05T15:35:15.200Z,29.95
2023-02-05T15:38:02.253Z,32.10
2023-02-05T15:40:33.145Z,33.13
2023-02-05T15:43:01.930Z,33.35
2023-02-05T15:45:34.389Z,32.80
2023-02-05T15:48:10.038Z,34.30
2023-02-05T15:51:00.558Z,32.70
2023-02-05T15:53:32.793Z,30.95
2023-02-05T15:56:15.938Z,31.88
2023-02-05T15:58:49.966Z,30.40
2023-02-05T16:01:24.769Z,29.00
2023-02-05T16:03:51.251Z,28.98
2023-02-05T16:06:22.298Z,27.33
2023-02-05T16:08:51.340Z,26.98
2023-02-05T16:11:32.444Z,27.88
2023-02-05T16:14:16.534Z,29.65
2023-02-05T16:17:11.111Z,29.42
2023-02-05T16:19:46.655Z,30.55
2023-02-05T16:22:22.178Z,29.85
2023-02-05T16:24:49.576Z,31.42
2023-02-05T16:27:20.749Z,29.88
2023-02-05T16:29:54.899Z,32.10
2023-02-05T16:32:27.417Z,31.80
2023-02-05T16:37:21.534Z,30.73
2023-02-05T16:39:55.488Z,31.25
2023-02-05T16:42:38.501Z,31.58
2023-02-05T16:45:07.854Z,32.92
2023-02-05T16:47:35.309Z,32.83
2023-02-05T16:50:02.015Z,33.85
2023-02-05T16:52:34.334Z,35.80
2023-02-05T16:55:26.888Z,34.83
2023-02-05T16:57:54.914Z,39.50
2023-02-05T17:00:27.683Z,37.00
2023-02-05T17:03:07.252Z,38.10
2023-02-05T17:05:35.727Z,38.83
2023-02-05T17:08:04.750Z,38.03
2023-02-05T17:10:31.255Z,39.00
2023-02-05T17:13:04.894Z,37.60
2023-02-05T17:15:36.477Z,40.78
2023-02-05T17:18:26.717Z,37.57
2023-02-05T17:21:24.968Z,36.85
2023-02-05T17:23:52.589Z,35.45
2023-02-05T17:26:19.634Z,37.45
2023-02-05T17:28:51.282Z,37.88
2023-02-05T17:31:17.860Z,37.73
2023-02-05T17:33:44.390Z,39.22
2023-02-05T17:36:16.296Z,36.05
2023-02-05T17:38:42.759Z,35.63
2023-02-05T17:41:34.940Z,36.15
2023-02-05T17:44:01.326Z,36.28
2023-02-05T17:46:27.727Z,35.42
2023-02-05T17:48:54.115Z,33.95
2023-02-05T17:51:21.942Z,34.13
2023-02-05T17:53:49.213Z,31.80
2023-02-05T17:56:16.014Z,32.92
2023-02-05T17:58:42.393Z,30.48
2023-02-05T18:01:11.688Z,31.13
2023-02-05T18:03:38.742Z,31.02
2023-02-05T18:06:05.527Z,30.10
2023-02-05T18:08:31.970Z,30.67
2023-02-05T18:10:58.342Z,31.20
2023-02-05T18:13:24.737Z,30.45
2023-02-05T18:15:52.092Z,29.90
2023-02-05T18:18:18.810Z,30.17
2023-02-05T18:20:45.175Z,30.25
2023-02-05T18:23:14.149Z,29.88
2023-02-05T18:25:45.029Z,29.48
2023-02-05T18:28:11.608Z,31.25
2023-02-05T18:30:39.486Z,30.27
2023-02-05T18:33:07.194Z,31.27
2023-02-05T18:35:33.691Z,32.33
2023-02-05T18:38:00.178Z,32.17
2023-02-05T18:40:26.548Z,34.30
2023-02-05T18:42:54.865Z,37.60
2023-02-05T18:45:21.263Z,36.80
2023-02-05T18:47:48.374Z,37.00
2023-02-05T18:50:16.316Z,37.50
2023-02-05T18:52:42.740Z,36.55
2023-02-05T18:55:09.108Z,38.42
2023-02-05T18:57:35.535Z,37.97
2023-02-05T19:00:01.924Z,37.95
2023-02-05T19:02:28.318Z,38.85
2023-02-05T19:04:56.191Z,37.67
2023-02-05T19:07:24.691Z,36.40
2023-02-05T19:09:51.432Z,37.08
2023-02-05T19:12:18.847Z,36.60
2023-02-05T19:14:45.220Z,35.75
2023-02-05T19:17:11.928Z,36.58
2023-02-05T19:19:38.564Z,35.53
2023-02-05T19:22:06.420Z,34.80
2023-02-05T19:24:33.423Z,35.20
2023-02-05T19:26:59.974Z,32.80
2023-02-05T19:29:26.814Z,34.42
2023-02-05T19:31:53.758Z,33.05
2023-02-05T19:34:21.974Z,35.75
2023-02-05T19:36:48.459Z,34.33
2023-02-05T19:39:15.263Z,33.58
2023-02-05T19:41:45.138Z,32.65
2023-02-05T19:44:11.561Z,33.55
2023-02-05T19:46:44.226Z,32.83
2023-02-05T19:49:21.130Z,32.10
2023-02-05T19:51:49.665Z,31.40
2023-02-05T19:54:16.590Z,29.95
2023-02-05T19:56:44.108Z,27.73
2023-02-05T19:59:11.370Z,26.05
2023-02-05T20:01:39.770Z,26.75
2023-02-05T20:04:09.157Z,26.33
2023-02-05T20:06:36.095Z,25.42
2023-02-05T20:09:05.860Z,24.33
2023-02-05T20:11:32.257Z,23.70
2023-02-05T20:14:01.872Z,25.15
2023-02-05T20:16:28.413Z,23.75
2023-02-05T20:18:57.641Z,29.00
2023-02-05T20:21:25.038Z,28.15
2023-02-05T20:23:51.656Z,30.50
2023-02-05T20:26:22.135Z,31.23
2023-02-05T20:29:11.210Z,34.08
2023-02-05T20:31:42.828Z,35.85
2023-02-05T20:34:18.576Z,32.92
2023-02-05T20:36:46.653Z,36.10
2023-02-05T20:39:13.143Z,36.50
2023-02-05T20:41:39.843Z,39.53
2023-02-05T20:44:08.644Z,39.50
2023-02-05T20:46:35.550Z,35.40
2023-02-05T20:49:03.371Z,36.83
2023-02-05T20:51:30.560Z,36.70
2023-02-05T20:53:58.221Z,39.65
2023-02-05T20:56:25.729Z,38.50
2023-02-05T20:58:52.245Z,37.80
2023-02-05T21:01:24.407Z,38.85
2023-02-05T21:03:53.100Z,39.63
2023-02-05T21:06:21.119Z,41.35
2023-02-05T21:08:48.763Z,39.35
2023-02-05T21:11:16.046Z,39.22
2023-02-05T21:13:43.489Z,39.50
2023-02-05T21:16:10.480Z,41.30
2023-02-05T21:18:38.172Z,40.92
2023-02-05T21:21:06.734Z,42.20
2023-02-05T21:23:33.163Z,41.88
2023-02-05T21:25:59.578Z,42.13
2023-02-05T21:28:26.132Z,43.25
2023-02-05T21:31:00.500Z,42.13
2023-02-05T21:33:26.969Z,41.42
2023-02-05T21:35:53.355Z,42.67
2023-02-05T21:38:19.750Z,39.28
2023-02-05T21:40:46.157Z,41.83
2023-02-05T21:43:12.556Z,41.67
2023-02-05T21:45:40.187Z,40.63
2023-02-05T21:48:06.764Z,40.40
2023-02-05T21:50:33.605Z,38.50
2023-02-05T21:53:00.178Z,39.28
2023-02-05T21:55:26.810Z,38.80
2023-02-05T21:57:53.216Z,38.90
2023-02-05T22:00:19.856Z,37.70
2023-02-05T22:02:46.297Z,38.15
2023-02-05T22:05:12.707Z,37.08
2023-02-05T22:07:39.146Z,34.45
2023-02-05T22:10:05.930Z,34.55
2023-02-05T22:12:34.657Z,32.50
2023-02-05T22:15:01.060Z,32.28
2023-02-05T22:17:27.536Z,33.13
2023-02-05T22:19:53.946Z,33.00
2023-02-05T22:22:20.368Z,31.52
2023-02-05T22:24:46.843Z,31.63
2023-02-05T22:27:13.258Z,31.15
2023-02-05T22:29:39.673Z,31.27
2023-02-05T22:32:06.046Z,34.40
2023-02-05T22:34:32.492Z,33.58
2023-02-05T22:36:59.643Z,32.80
2023-02-05T22:39:26.080Z,32.47
2023-02-05T22:41:52.478Z,32.38
2023-02-05T22:44:18.908Z,34.92
2023-02-05T22:46:45.361Z,31.92
2023-02-05T22:49:13.088Z,30.83
2023-02-05T22:51:40.322Z,29.90
2023-02-05T22:54:09.471Z,28.40
2023-02-05T22:56:35.863Z,27.40
2023-02-05T22:59:03.568Z,26.38
2023-02-05T23:01:34.665Z,24.58
2023-02-05T23:04:02.221Z,23.42
2023-02-05T23:06:32.002Z,22.90
2023-02-05T23:09:05.059Z,21.52
2023-02-05T23:11:32.124Z,21.52
2023-02-05T23:13:59.559Z,21.33
2023-02-05T23:16:38.091Z,20.67
2023-02-05T23:19:08.350Z,20.38
2023-02-05T23:21:35.713Z,20.52
2023-02-05T23:24:02.367Z,21.65
2023-02-05T23:26:32.485Z,20.05
2023-02-05T23:28:59.002Z,19.70
2023-02-05T23:31:25.635Z,18.95
2023-02-05T23:33:53.070Z,20.25
2023-02-05T23:36:19.667Z,19.73
2023-02-05T23:38:46.199Z,19.20
2023-02-05T23:41:12.982Z,20.20
2023-02-05T23:43:40.090Z,18.73
2023-02-05T23:46:07.537Z,19.05
2023-02-05T23:48:34.442Z,20.08
2023-02-05T23:51:01.017Z,19.52
2023-02-05T23:53:27.501Z,20.38
2023-02-05T23:55:54.166Z,18.50
2023-02-05T23:58:23.831Z,18.90
